sensor_id;sensor_type;location;lat;lon;timestamp;pressure;altitude;pressure_sealevel;temperature;humidity
24013;BME280;12220;50.194;18.948;2023-02-11T00:00:14;103620.66;;;0.33;61.81
24013;BME280;12220;50.194;18.948;2023-02-11T00:02:21;103622.50;;;0.34;61.80
24013;BME280;12220;50.194;18.948;2023-02-11T00:04:23;103624.31;;;0.36;61.82
24013;BME280;12220;50.194;18.948;2023-02-11T00:06:26;103614.41;;;0.34;61.77
24013;BME280;12220;50.194;18.948;2023-02-11T00:08:31;103615.25;;;0.32;61.84
24013;BME280;12220;50.194;18.948;2023-02-11T00:10:32;103599.95;;;0.29;61.94
24013;BME280;12220;50.194;18.948;2023-02-11T00:12:39;103610.62;;;0.25;61.95
24013;BME280;12220;50.194;18.948;2023-02-11T00:14:40;103616.02;;;0.25;61.97
24013;BME280;12220;50.194;18.948;2023-02-11T00:16:43;103609.73;;;0.24;62.03
24013;BME280;12220;50.194;18.948;2023-02-11T00:18:45;103612.45;;;0.26;62.06
24013;BME280;12220;50.194;18.948;2023-02-11T00:20:54;103608.88;;;0.27;62.11
24013;BME280;12220;50.194;18.948;2023-02-11T00:22:55;103616.95;;;0.25;62.06
24013;BME280;12220;50.194;18.948;2023-02-11T00:24:57;103616.95;;;0.25;62.08
24013;BME280;12220;50.194;18.948;2023-02-11T00:26:58;103616.95;;;0.25;62.15
24013;BME280;12220;50.194;18.948;2023-02-11T00:29:09;103618.80;;;0.28;62.21
24013;BME280;12220;50.194;18.948;2023-02-11T00:31:12;103607.16;;;0.32;62.27
24013;BME280;12220;50.194;18.948;2023-02-11T00:33:13;103609.05;;;0.36;62.26
24013;BME280;12220;50.194;18.948;2023-02-11T00:35:15;103604.63;;;0.40;62.21
24013;BME280;12220;50.194;18.948;2023-02-11T00:37:24;103600.20;;;0.43;62.14
24013;BME280;12220;50.194;18.948;2023-02-11T00:39:26;103598.37;;;0.42;62.08
24013;BME280;12220;50.194;18.948;2023-02-11T00:41:28;103588.46;;;0.40;61.97
24013;BME280;12220;50.194;18.948;2023-02-11T00:43:30;103583.89;;;0.36;62.01
24013;BME280;12220;50.194;18.948;2023-02-11T00:45:40;103580.23;;;0.33;62.11
24013;BME280;12220;50.194;18.948;2023-02-11T00:47:41;103582.03;;;0.33;62.13
24013;BME280;12220;50.194;18.948;2023-02-11T00:49:43;103576.63;;;0.33;62.12
24013;BME280;12220;50.194;18.948;2023-02-11T00:51:44;103586.56;;;0.34;62.17
24013;BME280;12220;50.194;18.948;2023-02-11T00:53:55;103573.94;;;0.33;62.22
24013;BME280;12220;50.194;18.948;2023-02-11T00:55:56;103564.94;;;0.31;62.22
24013;BME280;12220;50.194;18.948;2023-02-11T00:57:58;103559.52;;;0.29;62.23
24013;BME280;12220;50.194;18.948;2023-02-11T01:00:00;103549.56;;;0.25;62.24
24013;BME280;12220;50.194;18.948;2023-02-11T01:02:10;103543.21;;;0.23;62.30
24013;BME280;12220;50.194;18.948;2023-02-11T01:04:12;103542.31;;;0.23;62.40
24013;BME280;12220;50.194;18.948;2023-02-11T01:06:13;103535.11;;;0.22;62.41
24013;BME280;12220;50.194;18.948;2023-02-11T01:08:15;103519.86;;;0.22;62.48
24013;BME280;12220;50.194;18.948;2023-02-11T01:10:26;103516.26;;;0.23;62.51
24013;BME280;12220;50.194;18.948;2023-02-11T01:12:29;103492.91;;;0.22;62.60
24013;BME280;12220;50.194;18.948;2023-02-11T01:14:30;103493.77;;;0.21;62.60
24013;BME280;12220;50.194;18.948;2023-02-11T01:16:32;103498.28;;;0.21;62.64
24013;BME280;12220;50.194;18.948;2023-02-11T01:18:41;103490.98;;;0.15;62.80
24013;BME280;12220;50.194;18.948;2023-02-11T01:20:44;103478.36;;;0.12;62.73
24013;BME280;12220;50.194;18.948;2023-02-11T01:22:45;103483.68;;;0.08;62.96
24013;BME280;12220;50.194;18.948;2023-02-11T01:24:47;103465.65;;;0.05;62.89
24013;BME280;12220;50.194;18.948;2023-02-11T01:26:56;103461.07;;;-0.01;63.09
24013;BME280;12220;50.194;18.948;2023-02-11T01:28:57;103477.21;;;-0.02;63.06
24013;BME280;12220;50.194;18.948;2023-02-11T01:31:01;103476.28;;;-0.04;63.15
24013;BME280;12220;50.194;18.948;2023-02-11T01:33:03;103481.62;;;-0.07;63.29
24013;BME280;12220;50.194;18.948;2023-02-11T01:35:11;103231.09;;;-1.62;63.67
24013;BME280;12220;50.194;18.948;2023-02-11T01:37:13;103490.38;;;-0.18;63.59
24013;BME280;12220;50.194;18.948;2023-02-11T01:39:14;103502.02;;;-0.20;63.67
24013;BME280;12220;50.194;18.948;2023-02-11T01:41:16;103499.28;;;-0.23;64.06
24013;BME280;12220;50.194;18.948;2023-02-11T01:43:29;103495.66;;;-0.24;63.95
24013;BME280;12220;50.194;18.948;2023-02-11T01:47:47;103476.76;;;-0.27;64.23
24013;BME280;12220;50.194;18.948;2023-02-11T01:52:04;103478.58;;;-0.26;64.33
24013;BME280;12220;50.194;18.948;2023-02-11T01:54:17;103485.78;;;-0.25;64.13
24013;BME280;12220;50.194;18.948;2023-02-11T01:56:40;103483.96;;;-0.26;64.61
24013;BME280;12220;50.194;18.948;2023-02-11T01:59:02;103471.39;;;-0.25;64.49
24013;BME280;12220;50.194;18.948;2023-02-11T02:01:06;102200.05;;;-7.52;64.18
24013;BME280;12220;50.194;18.948;2023-02-11T02:03:16;103470.49;;;-0.26;64.80
24013;BME280;12220;50.194;18.948;2023-02-11T02:07:43;103473.16;;;-0.27;65.22
24013;BME280;12220;50.194;18.948;2023-02-11T02:09:52;103467.77;;;-0.27;65.18
24013;BME280;12220;50.194;18.948;2023-02-11T02:11:57;103466.84;;;-0.28;65.39
24013;BME280;12220;50.194;18.948;2023-02-11T02:14:10;103464.13;;;-0.29;65.48
24013;BME280;12220;50.194;18.948;2023-02-11T02:16:28;103456.98;;;-0.29;65.62
24013;BME280;12220;50.194;18.948;2023-02-11T02:25:27;103436.61;;;-0.13;65.50
24013;BME280;12220;50.194;18.948;2023-02-11T02:32:34;103399.95;;;-0.03;65.29
24013;BME280;12220;50.194;18.948;2023-02-11T02:34:50;103389.27;;;0.02;65.17
24013;BME280;12220;50.194;18.948;2023-02-11T02:37:03;103381.29;;;0.08;65.06
24013;BME280;12220;50.194;18.948;2023-02-11T02:41:23;103383.19;;;0.15;64.88
24013;BME280;12220;50.194;18.948;2023-02-11T02:43:28;103381.46;;;0.20;64.83
24013;BME280;12220;50.194;18.948;2023-02-11T02:45:34;103370.74;;;0.25;64.79
24013;BME280;12220;50.194;18.948;2023-02-11T02:47:35;103381.53;;;0.25;64.63
24013;BME280;12220;50.194;18.948;2023-02-11T02:49:36;103368.97;;;0.25;64.49
24013;BME280;12220;50.194;18.948;2023-02-11T03:03:24;103332.41;;;0.44;64.05
24013;BME280;12220;50.194;18.948;2023-02-11T03:05:47;103327.02;;;0.44;63.94
24013;BME280;12220;50.194;18.948;2023-02-11T03:10:26;103336.01;;;0.46;63.86
24013;BME280;12220;50.194;18.948;2023-02-11T03:12:30;103345.92;;;0.47;63.82
24013;BME280;12220;50.194;18.948;2023-02-11T03:14:35;103339.69;;;0.50;63.76
24013;BME280;12220;50.194;18.948;2023-02-11T03:16:38;103334.29;;;0.50;63.75
24013;BME280;12220;50.194;18.948;2023-02-11T03:18:43;103339.71;;;0.53;63.77
24013;BME280;12220;50.194;18.948;2023-02-11T03:20:50;103352.32;;;0.54;63.72
24013;BME280;12220;50.194;18.948;2023-02-11T03:22:57;103351.41;;;0.55;63.65
24013;BME280;12220;50.194;18.948;2023-02-11T03:24:59;103342.43;;;0.55;63.62
24013;BME280;12220;50.194;18.948;2023-02-11T03:27:13;103345.13;;;0.55;63.58
24013;BME280;12220;50.194;18.948;2023-02-11T03:31:53;103346.02;;;0.55;63.54
24013;BME280;12220;50.194;18.948;2023-02-11T03:34:10;103345.14;;;0.56;63.46
24013;BME280;12220;50.194;18.948;2023-02-11T03:36:38;103338.84;;;0.54;63.42
24013;BME280;12220;50.194;18.948;2023-02-11T03:38:49;103333.45;;;0.54;63.41
24013;BME280;12220;50.194;18.948;2023-02-11T03:40:54;103324.44;;;0.54;63.37
24013;BME280;12220;50.194;18.948;2023-02-11T03:45:11;103317.20;;;0.51;63.32
24013;BME280;12220;50.194;18.948;2023-02-11T03:47:16;103314.49;;;0.49;63.35
24013;BME280;12220;50.194;18.948;2023-02-11T03:49:26;103319.88;;;0.49;63.32
24013;BME280;12220;50.194;18.948;2023-02-11T03:51:30;103299.22;;;0.48;63.38
24013;BME280;12220;50.194;18.948;2023-02-11T03:53:32;103290.20;;;0.48;63.41
24013;BME280;12220;50.194;18.948;2023-02-11T03:55:37;103284.79;;;0.46;63.40
24013;BME280;12220;50.194;18.948;2023-02-11T03:57:40;103280.32;;;0.47;63.40
24013;BME280;12220;50.194;18.948;2023-02-11T04:01:55;103267.75;;;0.49;63.48
24013;BME280;12220;50.194;18.948;2023-02-11T04:03:59;103256.92;;;0.44;63.65
24013;BME280;12220;50.194;18.948;2023-02-11T04:06:01;103253.34;;;0.44;63.70
24013;BME280;12220;50.194;18.948;2023-02-11T04:08:02;103239.86;;;0.44;63.71
24013;BME280;12220;50.194;18.948;2023-02-11T04:10:05;103237.09;;;0.42;63.90
24013;BME280;12220;50.194;18.948;2023-02-11T04:12:06;103225.39;;;0.39;64.19
24013;BME280;12220;50.194;18.948;2023-02-11T04:14:15;103227.21;;;0.40;64.27
24013;BME280;12220;50.194;18.948;2023-02-11T04:16:17;103227.25;;;0.43;64.19
24013;BME280;12220;50.194;18.948;2023-02-11T04:18:18;103228.14;;;0.43;64.36
24013;BME280;12220;50.194;18.948;2023-02-11T04:20:22;103219.19;;;0.46;64.33
24013;BME280;12220;50.194;18.948;2023-02-11T04:22:30;103202.11;;;0.44;64.50
24013;BME280;12220;50.194;18.948;2023-02-11T04:24:33;103205.70;;;0.44;64.56
24013;BME280;12220;50.194;18.948;2023-02-11T04:26:34;103205.71;;;0.46;64.55
24013;BME280;12220;50.194;18.948;2023-02-11T04:28:39;103203.92;;;0.48;64.53
24013;BME280;12220;50.194;18.948;2023-02-11T04:30:47;103197.70;;;0.54;64.43
24013;BME280;12220;50.194;18.948;2023-02-11T04:32:49;103193.21;;;0.53;64.56
24013;BME280;12220;50.194;18.948;2023-02-11T04:34:50;103195.01;;;0.54;64.57
24013;BME280;12220;50.194;18.948;2023-02-11T04:36:52;103196.84;;;0.56;64.48
24013;BME280;12220;50.194;18.948;2023-02-11T04:39:01;103203.19;;;0.60;64.47
24013;BME280;12220;50.194;18.948;2023-02-11T04:41:03;103213.06;;;0.61;64.41
24013;BME280;12220;50.194;18.948;2023-02-11T04:43:05;103216.67;;;0.61;64.40
24013;BME280;12220;50.194;18.948;2023-02-11T04:45:07;103223.89;;;0.65;64.34
24013;BME280;12220;50.194;18.948;2023-02-11T04:47:16;103222.12;;;0.66;64.35
24013;BME280;12220;50.194;18.948;2023-02-11T04:49:20;103218.52;;;0.67;64.32
24013;BME280;12220;50.194;18.948;2023-02-11T04:51:21;103225.71;;;0.66;64.39
24013;BME280;12220;50.194;18.948;2023-02-11T04:53:23;103223.02;;;0.68;64.41
24013;BME280;12220;50.194;18.948;2023-02-11T04:55:31;103220.33;;;0.68;64.53
24013;BME280;12220;50.194;18.948;2023-02-11T04:57:33;103222.17;;;0.71;64.53
24013;BME280;12220;50.194;18.948;2023-02-11T04:59:34;103209.59;;;0.73;64.53
24013;BME280;12220;50.194;18.948;2023-02-11T05:01:39;103204.21;;;0.74;64.52
24013;BME280;12220;50.194;18.948;2023-02-11T05:03:47;103210.56;;;0.78;64.58
24013;BME280;12220;50.194;18.948;2023-02-11T05:05:48;103203.36;;;0.78;64.72
24013;BME280;12220;50.194;18.948;2023-02-11T05:07:50;103197.96;;;0.78;64.73
24013;BME280;12220;50.194;18.948;2023-02-11T05:09:51;103209.68;;;0.79;64.82
24013;BME280;12220;50.194;18.948;2023-02-11T05:12:02;103199.78;;;0.79;64.91
24013;BME280;12220;50.194;18.948;2023-02-11T05:14:04;103206.07;;;0.80;64.93
24013;BME280;12220;50.194;18.948;2023-02-11T05:16:06;103208.77;;;0.80;65.06
24013;BME280;12220;50.194;18.948;2023-02-11T05:18:07;103199.79;;;0.81;65.17
24013;BME280;12220;50.194;18.948;2023-02-11T05:20:17;103190.86;;;0.85;65.08
24013;BME280;12220;50.194;18.948;2023-02-11T05:22:19;103186.34;;;0.85;65.16
24013;BME280;12220;50.194;18.948;2023-02-11T05:24:22;103187.30;;;0.89;65.17
24013;BME280;12220;50.194;18.948;2023-02-11T05:26:26;103181.94;;;0.92;65.12
24013;BME280;12220;50.194;18.948;2023-02-11T05:28:32;103179.26;;;0.97;65.08
24013;BME280;12220;50.194;18.948;2023-02-11T05:30:35;103188.26;;;0.97;65.12
24013;BME280;12220;50.194;18.948;2023-02-11T05:32:39;103191.87;;;0.98;65.13
24013;BME280;12220;50.194;18.948;2023-02-11T05:34:41;103188.28;;;1.02;65.11
24013;BME280;12220;50.194;18.948;2023-02-11T05:36:47;103193.73;;;1.03;65.10
24013;BME280;12220;50.194;18.948;2023-02-11T05:38:52;103195.51;;;1.04;65.11
24013;BME280;12220;50.194;18.948;2023-02-11T05:40:53;103215.32;;;1.05;65.18
24013;BME280;12220;50.194;18.948;2023-02-11T05:42:55;103209.02;;;1.08;65.05
24013;BME280;12220;50.194;18.948;2023-02-11T05:45:03;103204.56;;;1.10;65.01
24013;BME280;12220;50.194;18.948;2023-02-11T05:47:06;103215.36;;;1.08;64.97
24013;BME280;12220;50.194;18.948;2023-02-11T05:49:09;103208.16;;;1.10;64.91
24013;BME280;12220;50.194;18.948;2023-02-11T05:51:10;103218.97;;;1.12;64.87
24013;BME280;12220;50.194;18.948;2023-02-11T05:53:18;103217.20;;;1.14;64.86
24013;BME280;12220;50.194;18.948;2023-02-11T05:55:19;103217.20;;;1.14;64.88
24013;BME280;12220;50.194;18.948;2023-02-11T05:57:22;103202.80;;;1.16;64.81
24013;BME280;12220;50.194;18.948;2023-02-11T05:59:26;103186.63;;;1.18;64.79
24013;BME280;12220;50.194;18.948;2023-02-11T06:01:33;103168.66;;;1.18;64.81
24013;BME280;12220;50.194;18.948;2023-02-11T06:03:34;102886.98;;;-0.31;64.65
24013;BME280;12220;50.194;18.948;2023-02-11T06:05:36;103160.56;;;1.18;64.79
24013;BME280;12220;50.194;18.948;2023-02-11T06:07:40;103161.45;;;1.20;64.72
24013;BME280;12220;50.194;18.948;2023-02-11T06:09:48;103165.09;;;1.21;64.75
24013;BME280;12220;50.194;18.948;2023-02-11T06:11:50;103157.85;;;1.17;64.80
24013;BME280;12220;50.194;18.948;2023-02-11T06:13:51;103094.60;;;0.82;64.81
24013;BME280;12220;50.194;18.948;2023-02-11T06:15:57;103160.55;;;1.17;64.81
24013;BME280;12220;50.194;18.948;2023-02-11T06:18:04;103159.68;;;1.19;64.81
24013;BME280;12220;50.194;18.948;2023-02-11T06:20:07;103165.02;;;1.18;64.86
24013;BME280;12220;50.194;18.948;2023-02-11T06:22:10;103169.55;;;1.17;64.82
24013;BME280;12220;50.194;18.948;2023-02-11T06:24:12;103166.82;;;1.16;64.85
24013;BME280;12220;50.194;18.948;2023-02-11T06:26:20;103165.97;;;1.18;64.79
24013;BME280;12220;50.194;18.948;2023-02-11T06:28:22;103159.68;;;1.21;64.78
24013;BME280;12220;50.194;18.948;2023-02-11T06:30:24;103164.17;;;1.22;64.77
24013;BME280;12220;50.194;18.948;2023-02-11T06:32:26;103159.72;;;1.26;64.76
24013;BME280;12220;50.194;18.948;2023-02-11T06:34:34;103165.10;;;1.24;64.72
24013;BME280;12220;50.194;18.948;2023-02-11T06:36:37;103218.16;;;1.24;64.69
24013;BME280;12220;50.194;18.948;2023-02-11T06:38:41;103155.19;;;1.23;64.72
24013;BME280;12220;50.194;18.948;2023-02-11T06:40:46;103141.69;;;1.23;64.69
24013;BME280;12220;50.194;18.948;2023-02-11T06:42:54;103143.51;;;1.24;64.70
24013;BME280;12220;50.194;18.948;2023-02-11T06:44:55;103138.97;;;1.20;64.87
24013;BME280;12220;50.194;18.948;2023-02-11T06:46:57;103146.18;;;1.19;64.95
24013;BME280;12220;50.194;18.948;2023-02-11T06:48:58;103156.05;;;1.19;65.00
24013;BME280;12220;50.194;18.948;2023-02-11T06:51:07;103156.04;;;1.17;65.08
24013;BME280;12220;50.194;18.948;2023-02-11T06:53:18;103159.63;;;1.18;65.04
24013;BME280;12220;50.194;18.948;2023-02-11T06:55:19;103144.36;;;1.18;65.12
24013;BME280;12220;50.194;18.948;2023-02-11T06:57:21;103162.38;;;1.19;65.08
24013;BME280;12220;50.194;18.948;2023-02-11T06:59:24;103150.65;;;1.19;65.19
24013;BME280;12220;50.194;18.948;2023-02-11T07:01:27;103152.48;;;1.20;65.14
24013;BME280;12220;50.194;18.948;2023-02-11T07:03:28;103151.59;;;1.19;65.16
24013;BME280;12220;50.194;18.948;2023-02-11T07:05:30;103159.68;;;1.21;65.22
24013;BME280;12220;50.194;18.948;2023-02-11T07:07:40;103151.59;;;1.21;65.31
24013;BME280;12220;50.194;18.948;2023-02-11T07:09:41;103148.89;;;1.21;65.34
24013;BME280;12220;50.194;18.948;2023-02-11T07:11:43;103146.20;;;1.24;65.28
24013;BME280;12220;50.194;18.948;2023-02-11T07:13:44;103142.59;;;1.24;65.31
24013;BME280;12220;50.194;18.948;2023-02-11T07:15:55;103144.40;;;1.23;65.31
24013;BME280;12220;50.194;18.948;2023-02-11T07:17:56;103136.31;;;1.26;65.23
24013;BME280;12220;50.194;18.948;2023-02-11T07:19:59;103143.54;;;1.30;65.19
24013;BME280;12220;50.194;18.948;2023-02-11T07:22:03;103141.73;;;1.31;65.20
24013;BME280;12220;50.194;18.948;2023-02-11T07:24:11;103127.34;;;1.30;65.30
24013;BME280;12220;50.194;18.948;2023-02-11T07:26:17;103133.64;;;1.32;65.29
24013;BME280;12220;50.194;18.948;2023-02-11T07:28:19;103131.85;;;1.28;65.41
24013;BME280;12220;50.194;18.948;2023-02-11T07:30:20;103134.51;;;1.27;65.43
24013;BME280;12220;50.194;18.948;2023-02-11T07:32:25;103132.74;;;1.29;65.40
24013;BME280;12220;50.194;18.948;2023-02-11T07:34:27;103127.34;;;1.30;65.35
24013;BME280;12220;50.194;18.948;2023-02-11T07:36:30;103131.86;;;1.31;65.43
24013;BME280;12220;50.194;18.948;2023-02-11T07:38:35;103133.64;;;1.32;65.44
24013;BME280;12220;50.194;18.948;2023-02-11T07:40:40;103134.59;;;1.34;65.42
24013;BME280;12220;50.194;18.948;2023-02-11T07:42:42;103121.97;;;1.35;65.46
24013;BME280;12220;50.194;18.948;2023-02-11T07:44:45;103126.49;;;1.34;65.49
24013;BME280;12220;50.194;18.948;2023-02-11T07:46:46;103132.79;;;1.38;65.39
24013;BME280;12220;50.194;18.948;2023-02-11T07:48:56;103126.52;;;1.41;65.35
24013;BME280;12220;50.194;18.948;2023-02-11T07:51:07;103122.02;;;1.44;65.35
24013;BME280;12220;50.194;18.948;2023-02-11T07:53:09;103114.84;;;1.45;65.40
24013;BME280;12220;50.194;18.948;2023-02-11T07:55:10;103108.55;;;1.46;65.47
24013;BME280;12220;50.194;18.948;2023-02-11T07:57:14;103112.17;;;1.49;65.46
24013;BME280;12220;50.194;18.948;2023-02-11T07:59:15;103108.58;;;1.50;65.54
24013;BME280;12220;50.194;18.948;2023-02-11T08:01:19;103114.00;;;1.55;65.66
24013;BME280;12220;50.194;18.948;2023-02-11T08:03:24;103110.45;;;1.62;65.54
24013;BME280;12220;50.194;18.948;2023-02-11T08:05:29;103108.69;;;1.70;65.39
24013;BME280;12220;50.194;18.948;2023-02-11T08:07:31;103095.20;;;1.73;65.29
24013;BME280;12220;50.194;18.948;2023-02-11T08:09:32;103100.61;;;1.77;65.27
24013;BME280;12220;50.194;18.948;2023-02-11T08:11:34;103102.45;;;1.84;65.23
24013;BME280;12220;50.194;18.948;2023-02-11T08:13:45;103104.27;;;1.91;65.22
24013;BME280;12220;50.194;18.948;2023-02-11T08:15:46;103092.55;;;1.95;65.10
24013;BME280;12220;50.194;18.948;2023-02-11T08:17:48;103086.27;;;1.99;64.91
24013;BME280;12220;50.194;18.948;2023-02-11T08:19:49;103094.38;;;2.02;64.74
24013;BME280;12220;50.194;18.948;2023-02-11T08:22:00;103098.91;;;2.09;64.77
24013;BME280;12220;50.194;18.948;2023-02-11T08:24:02;103100.73;;;2.17;64.70
24013;BME280;12220;50.194;18.948;2023-02-11T08:26:05;102854.53;;;0.78;64.38
24013;BME280;12220;50.194;18.948;2023-02-11T08:28:07;103110.68;;;2.27;64.42
24013;BME280;12220;50.194;18.948;2023-02-11T08:30:15;103120.61;;;2.33;64.35
24013;BME280;12220;50.194;18.948;2023-02-11T08:32:16;103123.31;;;2.34;64.15
24013;BME280;12220;50.194;18.948;2023-02-11T08:34:18;103126.95;;;2.38;63.98
24013;BME280;12220;50.194;18.948;2023-02-11T08:36:21;103124.24;;;2.38;63.72
24013;BME280;12220;50.194;18.948;2023-02-11T08:38:30;103111.61;;;2.41;63.73
24013;BME280;12220;50.194;18.948;2023-02-11T08:40:31;103117.02;;;2.46;63.78
24013;BME280;12220;50.194;18.948;2023-02-11T08:42:36;103108.02;;;2.49;63.70
24013;BME280;12220;50.194;18.948;2023-02-11T08:44:38;103102.61;;;2.52;63.65
24013;BME280;12220;50.194;18.948;2023-02-11T08:46:46;103094.51;;;2.55;63.65
24013;BME280;12220;50.194;18.948;2023-02-11T08:48:47;103098.13;;;2.55;63.50
24013;BME280;12220;50.194;18.948;2023-02-11T08:50:49;103098.12;;;2.60;63.46
24013;BME280;12220;50.194;18.948;2023-02-11T08:52:50;103090.02;;;2.61;63.29
24013;BME280;12220;50.194;18.948;2023-02-11T08:55:00;103094.53;;;2.63;63.18
24013;BME280;12220;50.194;18.948;2023-02-11T08:57:02;103099.94;;;2.67;63.16
24013;BME280;12220;50.194;18.948;2023-02-11T08:59:04;103098.16;;;2.72;63.11
24013;BME280;12220;50.194;18.948;2023-02-11T09:01:11;103099.93;;;2.78;63.11
24013;BME280;12220;50.194;18.948;2023-02-11T09:03:16;103107.16;;;2.81;63.09
24013;BME280;12220;50.194;18.948;2023-02-11T09:05:18;103094.53;;;2.86;63.04
24013;BME280;12220;50.194;18.948;2023-02-11T09:07:19;103090.02;;;2.88;62.78
24013;BME280;12220;50.194;18.948;2023-02-11T09:09:21;103079.19;;;2.92;62.79
24013;BME280;12220;50.194;18.948;2023-02-11T09:13:52;103103.54;;;2.94;62.50
24013;BME280;12220;50.194;18.948;2023-02-11T09:15:54;103101.76;;;2.94;62.56
24013;BME280;12220;50.194;18.948;2023-02-11T09:17:56;103097.23;;;2.95;62.40
24013;BME280;12220;50.194;18.948;2023-02-11T09:19:57;103111.66;;;2.97;62.40
24013;BME280;12220;50.194;18.948;2023-02-11T09:22:08;103108.05;;;2.98;62.42
24013;BME280;12220;50.194;18.948;2023-02-11T09:24:10;103121.58;;;3.01;62.55
24013;BME280;12220;50.194;18.948;2023-02-11T09:26:18;103128.80;;;3.07;62.66
24013;BME280;12220;50.194;18.948;2023-02-11T09:28:22;103136.91;;;3.13;62.74
24013;BME280;12220;50.194;18.948;2023-02-11T09:30:23;103029.60;;;2.66;62.73
24013;BME280;12220;50.194;18.948;2023-02-11T09:32:25;103123.39;;;3.22;62.59
24013;BME280;12220;50.194;18.948;2023-02-11T09:34:26;103127.91;;;3.25;62.39
24013;BME280;12220;50.194;18.948;2023-02-11T09:36:33;103136.03;;;3.26;62.20
24013;BME280;12220;50.194;18.948;2023-02-11T09:38:38;103135.09;;;3.27;62.16
24013;BME280;12220;50.194;18.948;2023-02-11T09:40:45;103134.20;;;3.28;61.99
24013;BME280;12220;50.194;18.948;2023-02-11T09:42:52;103135.09;;;3.27;61.71
24013;BME280;12220;50.194;18.948;2023-02-11T09:44:58;103144.16;;;3.25;61.53
24013;BME280;12220;50.194;18.948;2023-02-11T09:49:22;103140.52;;;3.23;61.29
24013;BME280;12220;50.194;18.948;2023-02-11T09:54:03;103140.54;;;3.20;61.30
24013;BME280;12220;50.194;18.948;2023-02-11T09:56:12;103124.29;;;3.20;61.44
24013;BME280;12220;50.194;18.948;2023-02-11T09:58:21;103130.59;;;3.20;61.38
24013;BME280;12220;50.194;18.948;2023-02-11T10:00:32;103118.86;;;3.24;61.55
24013;BME280;12220;50.194;18.948;2023-02-11T10:21:23;103088.99;;;3.61;61.40
24013;BME280;12220;50.194;18.948;2023-02-11T10:23:36;103088.06;;;3.64;60.97
24013;BME280;12220;50.194;18.948;2023-02-11T10:25:42;103079.03;;;3.65;60.88
24013;BME280;12220;50.194;18.948;2023-02-11T10:27:46;103066.39;;;3.67;60.85
24013;BME280;12220;50.194;18.948;2023-02-11T10:29:52;103076.30;;;3.68;60.79
24013;BME280;12220;50.194;18.948;2023-02-11T10:31:58;103057.34;;;3.68;60.69
24013;BME280;12220;50.194;18.948;2023-02-11T10:34:13;103039.30;;;3.67;60.69
24013;BME280;12220;50.194;18.948;2023-02-11T10:36:16;103039.30;;;3.69;60.71
24013;BME280;12220;50.194;18.948;2023-02-11T10:38:18;103028.45;;;3.69;60.68
24013;BME280;12220;50.194;18.948;2023-02-11T10:40:25;103027.52;;;3.70;60.81
24013;BME280;12220;50.194;18.948;2023-02-11T10:42:27;103012.17;;;3.72;60.80
24013;BME280;12220;50.194;18.948;2023-02-11T10:44:37;103001.32;;;3.73;60.83
24013;BME280;12220;50.194;18.948;2023-02-11T10:46:39;102991.36;;;3.75;60.86
24013;BME280;12220;50.194;18.948;2023-02-11T10:48:48;102974.18;;;3.79;60.97
24013;BME280;12220;50.194;18.948;2023-02-11T10:53:17;102945.19;;;3.92;60.92
24013;BME280;12220;50.194;18.948;2023-02-11T10:55:27;102937.02;;;3.97;61.02
24013;BME280;12220;50.194;18.948;2023-02-11T10:57:41;102934.24;;;4.05;61.16
24013;BME280;12220;50.194;18.948;2023-02-11T10:59:46;102936.91;;;4.12;61.06
24013;BME280;12220;50.194;18.948;2023-02-11T11:04:00;102925.96;;;4.23;60.59
24013;BME280;12220;50.194;18.948;2023-02-11T11:06:05;102921.40;;;4.30;60.57
24013;BME280;12220;50.194;18.948;2023-02-11T11:08:08;102934.89;;;4.38;60.39
24013;BME280;12220;50.194;18.948;2023-02-11T11:14:37;102954.70;;;4.47;60.12
24013;BME280;12220;50.194;18.948;2023-02-11T11:16:51;102970.95;;;4.50;60.14
24013;BME280;12220;50.194;18.948;2023-02-11T11:18:53;102976.38;;;4.50;59.90
24013;BME280;12220;50.194;18.948;2023-02-11T11:21:00;102961.00;;;4.49;59.65
24013;BME280;12220;50.194;18.948;2023-02-11T11:25:27;102746.19;;;3.09;59.51
24013;BME280;12220;50.194;18.948;2023-02-11T11:27:38;102948.51;;;4.30;59.67
24013;BME280;12220;50.194;18.948;2023-02-11T11:29:47;102947.64;;;4.25;59.78
24013;BME280;12220;50.194;18.948;2023-02-11T11:31:55;102947.66;;;4.23;60.03
24013;BME280;12220;50.194;18.948;2023-02-11T11:36:18;102944.99;;;4.18;60.28
24013;BME280;12220;50.194;18.948;2023-02-11T11:38:20;102940.45;;;4.21;60.41
24013;BME280;12220;50.194;18.948;2023-02-11T11:40:29;102946.80;;;4.19;60.51
24013;BME280;12220;50.194;18.948;2023-02-11T11:42:33;102939.56;;;4.18;60.57
24013;BME280;12220;50.194;18.948;2023-02-11T11:44:35;102936.87;;;4.17;60.66
24013;BME280;12220;50.194;18.948;2023-02-11T11:46:40;102942.30;;;4.17;60.79
24013;BME280;12220;50.194;18.948;2023-02-11T11:48:46;102939.59;;;4.17;60.89
24013;BME280;12220;50.194;18.948;2023-02-11T11:50:56;102926.02;;;4.17;60.91
24013;BME280;12220;50.194;18.948;2023-02-11T11:53:06;102936.85;;;4.18;60.96
24013;BME280;12220;50.194;18.948;2023-02-11T11:57:25;102947.72;;;4.17;61.11
24013;BME280;12220;50.194;18.948;2023-02-11T11:59:38;102958.55;;;4.17;61.19
24013;BME280;12220;50.194;18.948;2023-02-11T12:12:59;102956.70;;;4.25;61.33
24013;BME280;12220;50.194;18.948;2023-02-11T12:19:55;102972.94;;;4.30;61.36
24013;BME280;12220;50.194;18.948;2023-02-11T12:33:28;102952.19;;;4.24;62.11
24013;BME280;12220;50.194;18.948;2023-02-11T12:37:57;102972.95;;;4.24;62.41
24013;BME280;12220;50.194;18.948;2023-02-11T12:49:38;102945.88;;;4.19;62.80
24013;BME280;12220;50.194;18.948;2023-02-11T12:56:43;102912.55;;;4.09;63.91
24013;BME280;12220;50.194;18.948;2023-02-11T12:58:58;102882.72;;;4.06;64.45
24013;BME280;12220;50.194;18.948;2023-02-11T13:01:08;102867.40;;;4.04;64.56